sensor_id;sensor_type;location;lat;lon;timestamp;P1;durP1;ratioP1;P2;durP2;ratioP2
66751;SDS011;53663;42.676;23.238;2022-10-22T00:01:47;25.92;;;14.05;;
66751;SDS011;53663;42.676;23.238;2022-10-22T00:04:12;25.40;;;14.68;;
66751;SDS011;53663;42.676;23.238;2022-10-22T00:06:38;21.75;;;14.43;;
66751;SDS011;53663;42.676;23.238;2022-10-22T00:09:03;26.35;;;14.70;;
66751;SDS011;53663;42.676;23.238;2022-10-22T00:11:30;26.63;;;14.63;;
66751;SDS011;53663;42.676;23.238;2022-10-22T00:13:56;31.13;;;15.02;;
66751;SDS011;53663;42.676;23.238;2022-10-22T00:16:22;27.90;;;13.73;;
66751;SDS011;53663;42.676;23.238;2022-10-22T00:18:47;24.48;;;14.05;;
66751;SDS011;53663;42.676;23.238;2022-10-22T00:21:13;24.73;;;14.20;;
66751;SDS011;53663;42.676;23.238;2022-10-22T00:23:39;25.45;;;14.25;;
66751;SDS011;53663;42.676;23.238;2022-10-22T00:26:06;24.88;;;14.52;;
66751;SDS011;53663;42.676;23.238;2022-10-22T00:28:32;25.35;;;14.55;;
66751;SDS011;53663;42.676;23.238;2022-10-22T00:30:58;24.13;;;14.50;;
66751;SDS011;53663;42.676;23.238;2022-10-22T00:33:25;21.50;;;13.30;;
66751;SDS011;53663;42.676;23.238;2022-10-22T00:35:51;25.25;;;15.07;;
66751;SDS011;53663;42.676;23.238;2022-10-22T00:38:17;24.33;;;13.48;;
66751;SDS011;53663;42.676;23.238;2022-10-22T00:40:43;25.60;;;15.23;;
66751;SDS011;53663;42.676;23.238;2022-10-22T00:43:10;29.13;;;14.48;;
66751;SDS011;53663;42.676;23.238;2022-10-22T00:45:37;24.67;;;14.00;;
66751;SDS011;53663;42.676;23.238;2022-10-22T00:52:57;27.45;;;14.88;;
66751;SDS011;53663;42.676;23.238;2022-10-22T00:55:23;33.22;;;16.45;;
66751;SDS011;53663;42.676;23.238;2022-10-22T00:57:51;29.27;;;16.25;;
66751;SDS011;53663;42.676;23.238;2022-10-22T01:00:19;26.63;;;15.50;;
66751;SDS011;53663;42.676;23.238;2022-10-22T01:02:45;23.27;;;14.75;;
66751;SDS011;53663;42.676;23.238;2022-10-22T01:05:12;25.20;;;16.17;;
66751;SDS011;53663;42.676;23.238;2022-10-22T01:07:47;28.73;;;16.10;;
66751;SDS011;53663;42.676;23.238;2022-10-22T01:31:01;29.60;;;14.90;;
66751;SDS011;53663;42.676;23.238;2022-10-22T01:33:28;23.55;;;14.95;;
66751;SDS011;53663;42.676;23.238;2022-10-22T01:35:55;30.08;;;16.25;;
66751;SDS011;53663;42.676;23.238;2022-10-22T01:38:24;26.30;;;15.10;;
66751;SDS011;53663;42.676;23.238;2022-10-22T01:40:50;26.65;;;14.20;;
66751;SDS011;53663;42.676;23.238;2022-10-22T01:43:16;25.67;;;15.48;;
66751;SDS011;53663;42.676;23.238;2022-10-22T01:45:43;25.92;;;15.40;;
66751;SDS011;53663;42.676;23.238;2022-10-22T01:59:31;29.10;;;14.15;;
66751;SDS011;53663;42.676;23.238;2022-10-22T02:02:18;22.20;;;13.65;;
66751;SDS011;53663;42.676;23.238;2022-10-22T02:04:59;27.48;;;14.82;;
66751;SDS011;53663;42.676;23.238;2022-10-22T02:07:37;30.52;;;14.80;;
66751;SDS011;53663;42.676;23.238;2022-10-22T02:10:06;25.50;;;13.93;;
66751;SDS011;53663;42.676;23.238;2022-10-22T02:12:33;28.63;;;14.57;;
66751;SDS011;53663;42.676;23.238;2022-10-22T02:14:59;22.67;;;13.57;;
66751;SDS011;53663;42.676;23.238;2022-10-22T02:17:28;25.48;;;14.15;;
66751;SDS011;53663;42.676;23.238;2022-10-22T02:20:01;20.95;;;13.68;;
66751;SDS011;53663;42.676;23.238;2022-10-22T02:22:30;22.13;;;13.13;;
66751;SDS011;53663;42.676;23.238;2022-10-22T02:24:56;27.00;;;14.65;;
66751;SDS011;53663;42.676;23.238;2022-10-22T02:27:23;20.08;;;13.30;;
66751;SDS011;53663;42.676;23.238;2022-10-22T02:30:05;26.00;;;14.50;;
66751;SDS011;53663;42.676;23.238;2022-10-22T02:35:20;27.50;;;16.13;;
66751;SDS011;53663;42.676;23.238;2022-10-22T02:37:47;23.60;;;15.02;;
66751;SDS011;53663;42.676;23.238;2022-10-22T02:40:13;25.95;;;13.95;;
66751;SDS011;53663;42.676;23.238;2022-10-22T02:42:40;25.65;;;14.82;;
66751;SDS011;53663;42.676;23.238;2022-10-22T02:45:06;26.02;;;15.60;;
66751;SDS011;53663;42.676;23.238;2022-10-22T02:47:33;22.75;;;14.98;;
66751;SDS011;53663;42.676;23.238;2022-10-22T02:49:58;23.55;;;14.10;;
66751;SDS011;53663;42.676;23.238;2022-10-22T02:52:24;25.55;;;14.23;;
66751;SDS011;53663;42.676;23.238;2022-10-22T02:54:49;28.63;;;15.60;;
66751;SDS011;53663;42.676;23.238;2022-10-22T02:57:15;28.48;;;15.75;;
66751;SDS011;53663;42.676;23.238;2022-10-22T02:59:40;30.63;;;15.77;;
66751;SDS011;53663;42.676;23.238;2022-10-22T03:02:06;26.73;;;15.70;;
66751;SDS011;53663;42.676;23.238;2022-10-22T03:04:31;33.45;;;14.88;;
66751;SDS011;53663;42.676;23.238;2022-10-22T03:06:57;26.33;;;15.73;;
66751;SDS011;53663;42.676;23.238;2022-10-22T03:09:23;30.80;;;16.23;;
66751;SDS011;53663;42.676;23.238;2022-10-22T03:11:48;27.15;;;15.02;;
66751;SDS011;53663;42.676;23.238;2022-10-22T03:14:14;29.13;;;15.77;;
66751;SDS011;53663;42.676;23.238;2022-10-22T03:16:39;23.60;;;15.23;;
66751;SDS011;53663;42.676;23.238;2022-10-22T03:19:05;23.85;;;14.63;;
66751;SDS011;53663;42.676;23.238;2022-10-22T03:21:33;23.38;;;13.93;;
66751;SDS011;53663;42.676;23.238;2022-10-22T03:24:00;24.10;;;13.82;;
66751;SDS011;53663;42.676;23.238;2022-10-22T03:26:28;28.52;;;14.52;;
66751;SDS011;53663;42.676;23.238;2022-10-22T03:28:54;26.23;;;13.50;;
66751;SDS011;53663;42.676;23.238;2022-10-22T03:31:20;24.00;;;14.10;;
66751;SDS011;53663;42.676;23.238;2022-10-22T03:33:45;25.95;;;15.02;;
66751;SDS011;53663;42.676;23.238;2022-10-22T03:36:11;25.08;;;15.10;;
66751;SDS011;53663;42.676;23.238;2022-10-22T03:38:37;24.95;;;14.55;;
66751;SDS011;53663;42.676;23.238;2022-10-22T03:41:04;23.23;;;13.75;;
66751;SDS011;53663;42.676;23.238;2022-10-22T03:43:30;24.30;;;14.93;;
66751;SDS011;53663;42.676;23.238;2022-10-22T03:45:55;21.60;;;14.00;;
66751;SDS011;53663;42.676;23.238;2022-10-22T03:48:21;26.20;;;13.30;;
66751;SDS011;53663;42.676;23.238;2022-10-22T03:50:46;23.77;;;14.43;;
66751;SDS011;53663;42.676;23.238;2022-10-22T03:53:12;25.40;;;14.75;;
66751;SDS011;53663;42.676;23.238;2022-10-22T03:55:39;23.13;;;14.32;;
66751;SDS011;53663;42.676;23.238;2022-10-22T03:58:05;27.80;;;15.07;;
66751;SDS011;53663;42.676;23.238;2022-10-22T04:00:31;23.35;;;14.70;;
66751;SDS011;53663;42.676;23.238;2022-10-22T04:02:58;28.45;;;15.23;;
66751;SDS011;53663;42.676;23.238;2022-10-22T04:05:23;28.58;;;15.65;;
66751;SDS011;53663;42.676;23.238;2022-10-22T04:07:49;24.98;;;15.60;;
66751;SDS011;53663;42.676;23.238;2022-10-22T04:10:14;24.90;;;15.07;;
66751;SDS011;53663;42.676;23.238;2022-10-22T04:12:40;25.63;;;15.60;;
66751;SDS011;53663;42.676;23.238;2022-10-22T04:15:05;32.75;;;16.00;;
66751;SDS011;53663;42.676;23.238;2022-10-22T04:17:32;24.85;;;15.88;;
66751;SDS011;53663;42.676;23.238;2022-10-22T04:19:59;27.35;;;15.65;;
66751;SDS011;53663;42.676;23.238;2022-10-22T04:22:25;24.70;;;15.07;;
66751;SDS011;53663;42.676;23.238;2022-10-22T04:24:50;23.92;;;14.52;;
66751;SDS011;53663;42.676;23.238;2022-10-22T04:27:16;29.38;;;15.40;;
66751;SDS011;53663;42.676;23.238;2022-10-22T04:29:41;24.15;;;15.32;;
66751;SDS011;53663;42.676;23.238;2022-10-22T04:32:07;26.88;;;16.08;;
66751;SDS011;53663;42.676;23.238;2022-10-22T04:34:32;30.60;;;15.85;;
66751;SDS011;53663;42.676;23.238;2022-10-22T04:36:58;24.85;;;15.63;;
66751;SDS011;53663;42.676;23.238;2022-10-22T04:39:23;28.75;;;15.15;;
66751;SDS011;53663;42.676;23.238;2022-10-22T04:41:49;23.35;;;14.93;;
66751;SDS011;53663;42.676;23.238;2022-10-22T04:44:14;31.73;;;15.68;;
66751;SDS011;53663;42.676;23.238;2022-10-22T04:46:40;25.70;;;15.30;;
66751;SDS011;53663;42.676;23.238;2022-10-22T04:49:05;23.33;;;15.40;;
66751;SDS011;53663;42.676;23.238;2022-10-22T04:51:31;27.45;;;16.13;;
66751;SDS011;53663;42.676;23.238;2022-10-22T04:53:57;26.23;;;15.73;;
66751;SDS011;53663;42.676;23.238;2022-10-22T04:56:24;26.77;;;16.27;;
66751;SDS011;53663;42.676;23.238;2022-10-22T04:58:52;30.52;;;16.63;;
66751;SDS011;53663;42.676;23.238;2022-10-22T05:01:22;30.80;;;17.63;;
66751;SDS011;53663;42.676;23.238;2022-10-22T05:03:52;30.98;;;18.92;;
66751;SDS011;53663;42.676;23.238;2022-10-22T05:06:19;31.30;;;16.83;;
66751;SDS011;53663;42.676;23.238;2022-10-22T05:08:46;24.38;;;16.30;;
66751;SDS011;53663;42.676;23.238;2022-10-22T05:11:16;26.65;;;16.98;;
66751;SDS011;53663;42.676;23.238;2022-10-22T05:13:43;25.55;;;16.02;;
66751;SDS011;53663;42.676;23.238;2022-10-22T05:16:09;32.13;;;17.20;;
66751;SDS011;53663;42.676;23.238;2022-10-22T05:18:35;27.40;;;16.73;;
66751;SDS011;53663;42.676;23.238;2022-10-22T05:21:02;26.88;;;15.82;;
66751;SDS011;53663;42.676;23.238;2022-10-22T05:23:29;33.83;;;17.67;;
66751;SDS011;53663;42.676;23.238;2022-10-22T05:25:54;32.13;;;17.40;;
66751;SDS011;53663;42.676;23.238;2022-10-22T05:28:20;31.23;;;16.88;;
66751;SDS011;53663;42.676;23.238;2022-10-22T05:30:52;28.73;;;16.67;;
66751;SDS011;53663;42.676;23.238;2022-10-22T05:33:18;29.85;;;17.30;;
66751;SDS011;53663;42.676;23.238;2022-10-22T05:35:46;24.17;;;16.35;;
66751;SDS011;53663;42.676;23.238;2022-10-22T05:38:15;29.38;;;16.80;;
66751;SDS011;53663;42.676;23.238;2022-10-22T05:40:41;26.33;;;16.35;;
66751;SDS011;53663;42.676;23.238;2022-10-22T05:43:07;27.63;;;14.90;;
66751;SDS011;53663;42.676;23.238;2022-10-22T05:45:36;27.80;;;15.60;;
66751;SDS011;53663;42.676;23.238;2022-10-22T05:48:05;26.42;;;15.77;;
66751;SDS011;53663;42.676;23.238;2022-10-22T05:50:34;27.73;;;14.05;;
66751;SDS011;53663;42.676;23.238;2022-10-22T05:53:01;21.67;;;15.02;;
66751;SDS011;53663;42.676;23.238;2022-10-22T05:55:26;25.52;;;14.50;;
66751;SDS011;53663;42.676;23.238;2022-10-22T05:57:51;24.83;;;14.75;;
66751;SDS011;53663;42.676;23.238;2022-10-22T06:00:17;30.83;;;17.00;;
66751;SDS011;53663;42.676;23.238;2022-10-22T06:02:43;26.73;;;18.95;;
66751;SDS011;53663;42.676;23.238;2022-10-22T06:05:08;28.45;;;19.45;;
66751;SDS011;53663;42.676;23.238;2022-10-22T06:07:34;32.25;;;18.90;;
66751;SDS011;53663;42.676;23.238;2022-10-22T06:10:00;26.98;;;16.60;;
66751;SDS011;53663;42.676;23.238;2022-10-22T06:12:26;29.17;;;15.85;;
66751;SDS011;53663;42.676;23.238;2022-10-22T06:14:51;21.95;;;13.57;;
66751;SDS011;53663;42.676;23.238;2022-10-22T06:17:17;24.73;;;13.15;;
66751;SDS011;53663;42.676;23.238;2022-10-22T06:19:44;28.70;;;14.82;;
66751;SDS011;53663;42.676;23.238;2022-10-22T06:22:09;21.63;;;13.02;;
66751;SDS011;53663;42.676;23.238;2022-10-22T06:24:35;22.10;;;13.40;;
66751;SDS011;53663;42.676;23.238;2022-10-22T06:27:01;22.83;;;13.23;;
66751;SDS011;53663;42.676;23.238;2022-10-22T06:29:26;19.52;;;13.20;;
66751;SDS011;53663;42.676;23.238;2022-10-22T06:31:52;20.77;;;13.18;;
66751;SDS011;53663;42.676;23.238;2022-10-22T06:34:17;25.50;;;13.55;;
66751;SDS011;53663;42.676;23.238;2022-10-22T06:36:43;23.17;;;13.95;;
66751;SDS011;53663;42.676;23.238;2022-10-22T06:39:10;22.60;;;13.43;;
66751;SDS011;53663;42.676;23.238;2022-10-22T06:41:37;17.77;;;12.75;;
66751;SDS011;53663;42.676;23.238;2022-10-22T06:44:02;25.10;;;14.30;;
66751;SDS011;53663;42.676;23.238;2022-10-22T06:46:28;28.27;;;15.45;;
66751;SDS011;53663;42.676;23.238;2022-10-22T06:48:59;21.52;;;14.20;;
66751;SDS011;53663;42.676;23.238;2022-10-22T06:51:27;30.73;;;14.82;;
66751;SDS011;53663;42.676;23.238;2022-10-22T06:53:53;26.65;;;15.93;;
66751;SDS011;53663;42.676;23.238;2022-10-22T06:56:21;20.70;;;14.27;;
66751;SDS011;53663;42.676;23.238;2022-10-22T06:58:51;23.73;;;14.93;;
66751;SDS011;53663;42.676;23.238;2022-10-22T07:03:44;29.42;;;14.70;;
66751;SDS011;53663;42.676;23.238;2022-10-22T07:06:11;23.25;;;15.15;;
66751;SDS011;53663;42.676;23.238;2022-10-22T07:08:38;28.08;;;16.48;;
66751;SDS011;53663;42.676;23.238;2022-10-22T07:11:26;26.80;;;18.73;;
66751;SDS011;53663;42.676;23.238;2022-10-22T07:13:55;27.33;;;15.65;;
66751;SDS011;53663;42.676;23.238;2022-10-22T07:16:22;30.50;;;15.10;;
66751;SDS011;53663;42.676;23.238;2022-10-22T07:18:48;24.33;;;13.80;;
66751;SDS011;53663;42.676;23.238;2022-10-22T07:21:14;22.67;;;14.27;;
66751;SDS011;53663;42.676;23.238;2022-10-22T07:23:41;17.08;;;10.93;;
66751;SDS011;53663;42.676;23.238;2022-10-22T07:26:07;19.00;;;11.15;;
66751;SDS011;53663;42.676;23.238;2022-10-22T07:28:34;25.50;;;15.35;;
66751;SDS011;53663;42.676;23.238;2022-10-22T07:31:02;23.75;;;16.77;;
66751;SDS011;53663;42.676;23.238;2022-10-22T07:33:27;21.88;;;13.45;;
66751;SDS011;53663;42.676;23.238;2022-10-22T07:36:00;21.92;;;13.18;;
66751;SDS011;53663;42.676;23.238;2022-10-22T07:38:28;20.48;;;12.45;;
66751;SDS011;53663;42.676;23.238;2022-10-22T07:40:55;21.60;;;12.52;;
66751;SDS011;53663;42.676;23.238;2022-10-22T07:43:21;19.05;;;11.20;;
66751;SDS011;53663;42.676;23.238;2022-10-22T07:45:47;22.17;;;12.15;;
66751;SDS011;53663;42.676;23.238;2022-10-22T07:48:13;13.88;;;9.50;;
66751;SDS011;53663;42.676;23.238;2022-10-22T07:50:39;17.20;;;11.27;;
66751;SDS011;53663;42.676;23.238;2022-10-22T07:53:04;16.55;;;12.45;;
66751;SDS011;53663;42.676;23.238;2022-10-22T07:55:32;23.17;;;13.07;;
66751;SDS011;53663;42.676;23.238;2022-10-22T07:57:58;27.40;;;16.42;;
66751;SDS011;53663;42.676;23.238;2022-10-22T08:00:24;27.88;;;14.98;;
66751;SDS011;53663;42.676;23.238;2022-10-22T08:02:49;20.80;;;13.88;;
66751;SDS011;53663;42.676;23.238;2022-10-22T08:05:15;23.13;;;15.75;;
66751;SDS011;53663;42.676;23.238;2022-10-22T08:07:41;25.55;;;17.20;;
66751;SDS011;53663;42.676;23.238;2022-10-22T08:10:07;25.63;;;17.48;;
66751;SDS011;53663;42.676;23.238;2022-10-22T08:12:34;32.47;;;19.02;;
66751;SDS011;53663;42.676;23.238;2022-10-22T08:15:00;29.05;;;19.73;;
66751;SDS011;53663;42.676;23.238;2022-10-22T08:17:26;34.05;;;20.63;;
66751;SDS011;53663;42.676;23.238;2022-10-22T08:19:52;29.80;;;19.40;;
66751;SDS011;53663;42.676;23.238;2022-10-22T08:22:17;26.75;;;16.05;;
66751;SDS011;53663;42.676;23.238;2022-10-22T08:24:43;22.80;;;14.70;;
66751;SDS011;53663;42.676;23.238;2022-10-22T08:27:08;22.20;;;13.98;;
66751;SDS011;53663;42.676;23.238;2022-10-22T08:29:34;25.50;;;17.17;;
66751;SDS011;53663;42.676;23.238;2022-10-22T08:32:00;24.65;;;16.95;;
66751;SDS011;53663;42.676;23.238;2022-10-22T08:34:27;20.33;;;13.77;;
66751;SDS011;53663;42.676;23.238;2022-10-22T08:36:53;20.00;;;13.25;;
66751;SDS011;53663;42.676;23.238;2022-10-22T08:39:19;21.38;;;12.98;;
66751;SDS011;53663;42.676;23.238;2022-10-22T08:49:47;18.73;;;12.88;;
66751;SDS011;53663;42.676;23.238;2022-10-22T08:52:14;21.00;;;13.52;;
66751;SDS011;53663;42.676;23.238;2022-10-22T09:00:09;21.00;;;14.48;;
66751;SDS011;53663;42.676;23.238;2022-10-22T09:08:20;19.17;;;15.45;;
66751;SDS011;53663;42.676;23.238;2022-10-22T09:10:47;22.65;;;13.98;;
66751;SDS011;53663;42.676;23.238;2022-10-22T09:13:25;24.63;;;14.30;;
66751;SDS011;53663;42.676;23.238;2022-10-22T09:15:54;23.13;;;14.40;;
66751;SDS011;53663;42.676;23.238;2022-10-22T09:18:54;25.80;;;14.40;;
66751;SDS011;53663;42.676;23.238;2022-10-22T09:27:17;18.25;;;14.60;;
66751;SDS011;53663;42.676;23.238;2022-10-22T09:29:50;25.90;;;15.75;;
66751;SDS011;53663;42.676;23.238;2022-10-22T09:32:15;23.45;;;15.65;;
66751;SDS011;53663;42.676;23.238;2022-10-22T09:34:45;28.40;;;16.65;;
66751;SDS011;53663;42.676;23.238;2022-10-22T09:39:43;27.08;;;16.83;;
66751;SDS011;53663;42.676;23.238;2022-10-22T09:42:10;25.73;;;16.42;;
66751;SDS011;53663;42.676;23.238;2022-10-22T09:44:39;22.08;;;16.50;;
66751;SDS011;53663;42.676;23.238;2022-10-22T09:47:06;26.33;;;16.60;;
66751;SDS011;53663;42.676;23.238;2022-10-22T09:49:50;31.05;;;16.20;;
66751;SDS011;53663;42.676;23.238;2022-10-22T09:55:37;25.35;;;17.40;;
66751;SDS011;53663;42.676;23.238;2022-10-22T09:58:03;23.45;;;18.25;;
66751;SDS011;53663;42.676;23.238;2022-10-22T10:00:29;27.52;;;19.70;;
66751;SDS011;53663;42.676;23.238;2022-10-22T10:02:55;27.50;;;17.58;;
66751;SDS011;53663;42.676;23.238;2022-10-22T10:05:29;27.90;;;17.30;;
66751;SDS011;53663;42.676;23.238;2022-10-22T10:07:58;25.42;;;17.30;;
66751;SDS011;53663;42.676;23.238;2022-10-22T10:10:34;28.35;;;16.67;;
66751;SDS011;53663;42.676;23.238;2022-10-22T10:13:13;26.52;;;17.80;;
66751;SDS011;53663;42.676;23.238;2022-10-22T10:15:55;30.77;;;17.75;;
66751;SDS011;53663;42.676;23.238;2022-10-22T10:21:16;30.42;;;18.67;;
66751;SDS011;53663;42.676;23.238;2022-10-22T10:26:33;29.35;;;17.05;;
66751;SDS011;53663;42.676;23.238;2022-10-22T10:34:45;34.55;;;17.25;;
66751;SDS011;53663;42.676;23.238;2022-10-22T10:37:23;23.48;;;17.27;;
66751;SDS011;53663;42.676;23.238;2022-10-22T10:42:37;32.10;;;18.67;;
66751;SDS011;53663;42.676;23.238;2022-10-22T10:45:19;35.42;;;18.63;;
66751;SDS011;53663;42.676;23.238;2022-10-22T10:58:33;31.95;;;17.05;;
66751;SDS011;53663;42.676;23.238;2022-10-22T11:07:16;27.02;;;16.10;;
66751;SDS011;53663;42.676;23.238;2022-10-22T11:09:49;32.70;;;17.13;;
66751;SDS011;53663;42.676;23.238;2022-10-22T11:12:23;23.85;;;15.27;;
66751;SDS011;53663;42.676;23.238;2022-10-22T11:15:00;22.02;;;14.60;;
66751;SDS011;53663;42.676;23.238;2022-10-22T11:17:35;23.35;;;14.82;;
66751;SDS011;53663;42.676;23.238;2022-10-22T11:20:15;30.98;;;16.98;;
66751;SDS011;53663;42.676;23.238;2022-10-22T11:22:56;23.38;;;15.07;;
66751;SDS011;53663;42.676;23.238;2022-10-22T11:25:30;26.48;;;16.00;;
66751;SDS011;53663;42.676;23.238;2022-10-22T11:28:17;21.75;;;14.38;;
66751;SDS011;53663;42.676;23.238;2022-10-22T11:31:02;23.98;;;14.35;;
66751;SDS011;53663;42.676;23.238;2022-10-22T11:36:21;31.73;;;14.38;;
66751;SDS011;53663;42.676;23.238;2022-10-22T11:38:49;22.10;;;14.52;;
66751;SDS011;53663;42.676;23.238;2022-10-22T11:41:16;24.45;;;13.82;;
66751;SDS011;53663;42.676;23.238;2022-10-22T11:48:59;31.67;;;15.43;;
66751;SDS011;53663;42.676;23.238;2022-10-22T11:51:29;22.23;;;13.90;;
66751;SDS011;53663;42.676;23.238;2022-10-22T11:53:58;37.35;;;14.25;;
66751;SDS011;53663;42.676;23.238;2022-10-22T11:56:31;27.13;;;14.07;;
66751;SDS011;53663;42.676;23.238;2022-10-22T11:59:02;29.92;;;13.18;;
66751;SDS011;53663;42.676;23.238;2022-10-22T12:01:40;27.60;;;13.35;;
66751;SDS011;53663;42.676;23.238;2022-10-22T12:04:20;27.02;;;12.43;;
66751;SDS011;53663;42.676;23.238;2022-10-22T12:09:25;19.35;;;12.80;;
66751;SDS011;53663;42.676;23.238;2022-10-22T12:12:00;23.02;;;12.82;;
66751;SDS011;53663;42.676;23.238;2022-10-22T12:17:17;22.42;;;12.43;;
66751;SDS011;53663;42.676;23.238;2022-10-22T12:22:21;27.02;;;11.30;;
66751;SDS011;53663;42.676;23.238;2022-10-22T12:24:51;22.88;;;11.90;;
66751;SDS011;53663;42.676;23.238;2022-10-22T12:27:19;23.60;;;12.00;;
66751;SDS011;53663;42.676;23.238;2022-10-22T12:29:47;21.63;;;11.23;;
66751;SDS011;53663;42.676;23.238;2022-10-22T12:32:14;17.27;;;11.05;;
66751;SDS011;53663;42.676;23.238;2022-10-22T12:34:44;25.77;;;11.38;;
66751;SDS011;53663;42.676;23.238;2022-10-22T12:37:11;25.05;;;11.13;;
66751;SDS011;53663;42.676;23.238;2022-10-22T12:39:39;23.80;;;12.40;;
66751;SDS011;53663;42.676;23.238;2022-10-22T12:42:04;28.88;;;10.68;;
66751;SDS011;53663;42.676;23.238;2022-10-22T12:44:31;22.92;;;10.35;;
66751;SDS011;53663;42.676;23.238;2022-10-22T12:46:57;21.00;;;10.20;;
66751;SDS011;53663;42.676;23.238;2022-10-22T12:49:37;21.15;;;9.77;;
66751;SDS011;53663;42.676;23.238;2022-10-22T12:52:05;14.60;;;9.80;;
66751;SDS011;53663;42.676;23.238;2022-10-22T12:54:36;17.75;;;9.90;;
66751;SDS011;53663;42.676;23.238;2022-10-22T12:57:03;18.40;;;10.35;;
66751;SDS011;53663;42.676;23.238;2022-10-22T12:59:35;21.30;;;10.05;;
66751;SDS011;53663;42.676;23.238;2022-10-22T13:02:22;24.75;;;10.32;;
66751;SDS011;53663;42.676;23.238;2022-10-22T13:07:45;21.63;;;9.57;;
66751;SDS011;53663;42.676;23.238;2022-10-22T13:10:14;20.05;;;10.23;;
66751;SDS011;53663;42.676;23.238;2022-10-22T13:12:55;16.65;;;9.45;;
66751;SDS011;53663;42.676;23.238;2022-10-22T13:18:19;20.80;;;10.25;;
66751;SDS011;53663;42.676;23.238;2022-10-22T13:20:56;22.38;;;10.82;;
66751;SDS011;53663;42.676;23.238;2022-10-22T13:23:26;14.85;;;8.77;;
66751;SDS011;53663;42.676;23.238;2022-10-22T13:26:00;17.92;;;8.80;;
66751;SDS011;53663;42.676;23.238;2022-10-22T13:28:29;15.85;;;8.07;;
66751;SDS011;53663;42.676;23.238;2022-10-22T13:30:57;28.90;;;9.13;;
66751;SDS011;53663;42.676;23.238;2022-10-22T13:33:32;16.85;;;8.93;;
66751;SDS011;53663;42.676;23.238;2022-10-22T13:36:01;18.75;;;8.98;;
66751;SDS011;53663;42.676;23.238;2022-10-22T13:38:27;21.60;;;9.00;;
66751;SDS011;53663;42.676;23.238;2022-10-22T13:40:53;16.05;;;8.63;;
66751;SDS011;53663;42.676;23.238;2022-10-22T13:43:19;20.38;;;8.23;;
66751;SDS011;53663;42.676;23.238;2022-10-22T13:45:46;18.15;;;8.60;;
66751;SDS011;53663;42.676;23.238;2022-10-22T13:50:43;19.35;;;8.40;;
66751;SDS011;53663;42.676;23.238;2022-10-22T13:53:11;32.10;;;8.93;;
66751;SDS011;53663;42.676;23.238;2022-10-22T13:55:43;21.95;;;7.97;;
66751;SDS011;53663;42.676;23.238;2022-10-22T13:58:10;19.02;;;8.30;;
66751;SDS011;53663;42.676;23.238;2022-10-22T14:00:37;21.77;;;9.05;;
66751;SDS011;53663;42.676;23.238;2022-10-22T14:03:04;26.15;;;8.60;;
66751;SDS011;53663;42.676;23.238;2022-10-22T14:05:34;19.70;;;8.85;;
66751;SDS011;53663;42.676;23.238;2022-10-22T14:07:59;18.77;;;8.82;;
66751;SDS011;53663;42.676;23.238;2022-10-22T14:10:26;16.30;;;8.05;;
66751;SDS011;53663;42.676;23.238;2022-10-22T14:12:52;17.45;;;7.32;;
66751;SDS011;53663;42.676;23.238;2022-10-22T14:15:19;19.95;;;8.45;;
66751;SDS011;53663;42.676;23.238;2022-10-22T14:17:47;26.77;;;8.27;;
66751;SDS011;53663;42.676;23.238;2022-10-22T14:20:20;14.45;;;7.95;;
66751;SDS011;53663;42.676;23.238;2022-10-22T14:22:49;21.45;;;7.97;;
66751;SDS011;53663;42.676;23.238;2022-10-22T14:25:16;25.95;;;7.78;;
66751;SDS011;53663;42.676;23.238;2022-10-22T14:27:43;21.25;;;8.43;;
66751;SDS011;53663;42.676;23.238;2022-10-22T14:30:12;28.67;;;8.80;;
66751;SDS011;53663;42.676;23.238;2022-10-22T14:32:46;17.33;;;8.45;;
66751;SDS011;53663;42.676;23.238;2022-10-22T14:35:13;22.58;;;8.73;;
66751;SDS011;53663;42.676;23.238;2022-10-22T14:37:40;22.95;;;8.82;;
66751;SDS011;53663;42.676;23.238;2022-10-22T14:40:06;18.48;;;8.75;;
66751;SDS011;53663;42.676;23.238;2022-10-22T14:42:34;27.45;;;9.45;;
66751;SDS011;53663;42.676;23.238;2022-10-22T14:45:04;24.63;;;9.35;;
66751;SDS011;53663;42.676;23.238;2022-10-22T14:47:31;30.55;;;9.38;;
66751;SDS011;53663;42.676;23.238;2022-10-22T14:49:56;21.13;;;9.20;;
66751;SDS011;53663;42.676;23.238;2022-10-22T14:52:22;22.80;;;8.93;;
66751;SDS011;53663;42.676;23.238;2022-10-22T14:54:47;28.35;;;9.93;;
66751;SDS011;53663;42.676;23.238;2022-10-22T14:57:13;29.65;;;10.00;;
66751;SDS011;53663;42.676;23.238;2022-10-22T14:59:40;40.25;;;10.00;;
66751;SDS011;53663;42.676;23.238;2022-10-22T15:02:08;21.13;;;9.32;;
66751;SDS011;53663;42.676;23.238;2022-10-22T15:04:37;29.90;;;10.25;;
66751;SDS011;53663;42.676;23.238;2022-10-22T15:07:03;25.73;;;9.63;;
66751;SDS011;53663;42.676;23.238;2022-10-22T15:09:28;26.52;;;10.80;;
66751;SDS011;53663;42.676;23.238;2022-10-22T15:11:54;35.38;;;9.43;;
66751;SDS011;53663;42.676;23.238;2022-10-22T15:14:20;31.65;;;10.73;;
66751;SDS011;53663;42.676;23.238;2022-10-22T15:16:45;23.80;;;11.38;;
66751;SDS011;53663;42.676;23.238;2022-10-22T15:19:11;31.25;;;13.07;;
66751;SDS011;53663;42.676;23.238;2022-10-22T15:21:37;44.38;;;13.40;;
66751;SDS011;53663;42.676;23.238;2022-10-22T15:24:02;37.67;;;14.25;;
66751;SDS011;53663;42.676;23.238;2022-10-22T15:26:28;29.88;;;13.70;;
66751;SDS011;53663;42.676;23.238;2022-10-22T15:28:54;36.20;;;20.10;;
66751;SDS011;53663;42.676;23.238;2022-10-22T15:31:40;41.38;;;16.40;;
66751;SDS011;53663;42.676;23.238;2022-10-22T15:34:16;30.83;;;14.70;;
66751;SDS011;53663;42.676;23.238;2022-10-22T15:36:47;30.08;;;12.85;;
66751;SDS011;53663;42.676;23.238;2022-10-22T15:39:13;31.45;;;13.43;;
66751;SDS011;53663;42.676;23.238;2022-10-22T15:41:39;30.80;;;13.07;;
66751;SDS011;53663;42.676;23.238;2022-10-22T15:44:05;30.38;;;12.90;;
66751;SDS011;53663;42.676;23.238;2022-10-22T15:46:32;43.58;;;13.63;;
66751;SDS011;53663;42.676;23.238;2022-10-22T15:48:59;33.00;;;13.02;;
66751;SDS011;53663;42.676;23.238;2022-10-22T15:51:25;37.40;;;11.77;;
66751;SDS011;53663;42.676;23.238;2022-10-22T15:53:52;25.40;;;11.05;;
66751;SDS011;53663;42.676;23.238;2022-10-22T15:56:19;23.40;;;11.82;;
66751;SDS011;53663;42.676;23.238;2022-10-22T15:58:45;35.67;;;13.52;;
66751;SDS011;53663;42.676;23.238;2022-10-22T16:01:12;30.75;;;12.93;;
66751;SDS011;53663;42.676;23.238;2022-10-22T16:03:38;29.55;;;13.35;;
66751;SDS011;53663;42.676;23.238;2022-10-22T16:06:04;35.90;;;15.45;;
66751;SDS011;53663;42.676;23.238;2022-10-22T16:08:31;52.97;;;19.42;;
66751;SDS011;53663;42.676;23.238;2022-10-22T16:10:57;44.15;;;18.10;;
66751;SDS011;53663;42.676;23.238;2022-10-22T16:13:23;41.40;;;19.58;;
66751;SDS011;53663;42.676;23.238;2022-10-22T16:15:50;51.40;;;20.00;;
66751;SDS011;53663;42.676;23.238;2022-10-22T16:18:16;53.80;;;19.27;;
66751;SDS011;53663;42.676;23.238;2022-10-22T16:20:43;37.90;;;17.88;;
66751;SDS011;53663;42.676;23.238;2022-10-22T16:23:08;34.33;;;18.30;;
66751;SDS011;53663;42.676;23.238;2022-10-22T16:25:38;46.63;;;18.25;;